Hovedside
METAR-TAF:

METAR-TAF

Lufthavner :

Kuusamo, Finland

Kuusamo lufthavn

breddegrad: 65-58N, lengdegrad: 029-11E, høyde over havet: 262 m

Gjeldene værobservasjon

Denne rapporten ble laget for 25 minutter siden, klokken 20:20 UTC
Vind 18 kt fra Vest-nordvest med vindkast opp mot 28 kt, skiftende mellom Vest og Nord-nordvest
Temperatur 1°C
Luftfuktighet 59%
Trykk 991 hPa
Sikt 10 km eller mer
Overskyet i en høyde av 4100 ft
lett snø

METAR: EFKS 262020Z 30018G28KT 270V340 9999 -SN OVC041 01/M06 Q0991

Tid: 23:45 (20:45 UTC)

Varsel

Denne rapporten ble laget for 15 minutter siden, klokken 20:30 UTC
Varsel gyldig fra 26. klokken 21 UTC til 26. klokken 24 UTC
Vind 18 kt fra Vest-nordvest
Sikt 10 km eller mer
Brutte skyer i en høyde av 3000 ft
Midlertidig
fra 26. klokken 21 UTC til 26. klokken 24 UTC
Vind 16 kt fra Vest med vindkast opp mot 32 kt
Sikt: 4000 m
lett snø

TAF: EFKS 262030Z 2621/2624 30018KT 9999 BKN030 TEMPO 2621/2624 28016G32KT 4000 -SN

Værobservasjoner og værvarsel for over 4000 flyplasser (METAR- og TAF-rapporter).

Tilgjengelige stasjoner er representert av de røde og gule prikkene på kartet.

Hold musepekeren over prikken for å se navnet på stasjonen.

Klikk så for å se værobservasjoner og -varsler.

For å forandre kartet kan du klikke på den grønne knappen med svart kryss for å zoome inn, på den grønne knappen med strek for å zoome ut, eller på de grønne pilene for å se tilstøtende kart.


METAR-TAF: